Time;durP1;ratioP1;P1;durP2;ratioP2;P2;SDS_P1;SDS_P2;PMS_P1;PMS_P2;Temp;Humidity;BMP_temperature;BMP_pressure;BME280_temperature;BME280_humidity;BME280_pressure;Samples;Min_cycle;Max_cycle;Signal;HPM_P1;HPM_P2
2023/08/05 00:02:15;;;;;;;5.88;5.38;;;;;;;27.62;53.02;99241.94;5058821;28;20028;-65
2023/08/05 00:04:40;;;;;;;6.07;5.47;;;;;;;27.38;53.82;99241.03;5058474;28;20047;-65
2023/08/05 00:07:05;;;;;;;6.00;5.40;;;;;;;27.66;52.96;99239.44;5059613;28;20048;-65
2023/08/05 00:09:31;;;;;;;6.28;5.68;;;;;;;27.36;53.35;99240.50;5057357;28;20063;-65
2023/08/05 00:11:56;;;;;;;6.00;5.50;;;;;;;27.47;53.44;99235.78;5059252;28;20045;-65
2023/08/05 00:14:22;;;;;;;6.00;5.45;;;;;;;27.31;53.81;99235.09;5058682;28;20045;-65
2023/08/05 00:16:47;;;;;;;5.75;4.80;;;;;;;27.46;53.47;99239.59;5061906;28;20318;-65
2023/08/05 00:19:13;;;;;;;5.95;5.45;;;;;;;27.41;53.54;99237.72;5056443;28;20033;-65
2023/08/05 00:21:38;;;;;;;7.00;5.40;;;;;;;27.59;52.79;99236.22;5057614;28;20101;-65
2023/08/05 00:24:03;;;;;;;6.15;5.20;;;;;;;27.69;52.81;99228.00;5059185;28;20032;-65
2023/08/05 00:26:29;;;;;;;6.55;5.38;;;;;;;27.66;53.18;99226.66;5059120;28;20102;-64
2023/08/05 00:28:54;;;;;;;5.93;5.20;;;;;;;27.77;52.63;99230.09;5055654;28;20029;-64
2023/08/05 00:31:20;;;;;;;6.18;5.10;;;;;;;27.87;52.63;99231.91;5057872;28;20037;-64
2023/08/05 00:33:45;;;;;;;7.07;5.10;;;;;;;27.87;52.69;99223.72;5059820;28;20025;-65
2023/08/05 00:36:11;;;;;;;7.85;5.85;;;;;;;27.88;52.76;99226.16;5059646;28;20264;-65
2023/08/05 00:38:36;;;;;;;5.47;4.80;;;;;;;27.93;52.89;99225.31;5058629;28;20051;-65
2023/08/05 00:41:01;;;;;;;5.97;5.38;;;;;;;27.94;53.04;99218.75;5059350;28;20028;-65
2023/08/05 00:43:27;;;;;;;5.97;5.38;;;;;;;27.80;53.34;99221.34;5059094;28;20033;-65
2023/08/05 00:45:53;;;;;;;7.05;5.28;;;;;;;27.88;53.32;99215.28;5059134;28;20213;-65
2023/08/05 00:48:19;;;;;;;6.18;4.95;;;;;;;27.91;53.23;99214.69;5058007;28;20294;-65
2023/08/05 00:50:45;;;;;;;5.63;5.03;;;;;;;27.87;53.46;99208.22;5056438;28;20040;-65
2023/08/05 00:53:10;;;;;;;7.60;5.35;;;;;;;27.78;54.18;99212.66;5055593;28;20219;-65
2023/08/05 00:55:36;;;;;;;7.20;5.55;;;;;;;27.74;54.41;99208.09;5057635;28;20040;-65
2023/08/05 00:58:01;;;;;;;6.43;5.80;;;;;;;27.48;55.18;99205.59;5058620;28;20336;-65
2023/08/05 01:00:27;;;;;;;7.50;6.57;;;;;;;27.42;55.69;99211.34;5057469;28;20041;-65
2023/08/05 01:02:52;;;;;;;7.05;6.35;;;;;;;27.42;55.78;99203.19;5058010;28;20041;-65
2023/08/05 01:05:20;;;;;;;6.65;6.00;;;;;;;27.32;56.45;99204.91;5058674;28;20033;-65
2023/08/05 01:07:46;;;;;;;7.10;6.40;;;;;;;27.39;56.69;99212.72;5058104;28;20052;-65
2023/08/05 01:10:12;;;;;;;6.60;6.00;;;;;;;27.45;56.54;99203.44;5058369;28;20262;-65
2023/08/05 01:12:37;;;;;;;6.32;5.72;;;;;;;27.49;56.78;99198.25;5058128;28;20029;-65
2023/08/05 01:15:03;;;;;;;6.68;5.97;;;;;;;27.53;56.64;99200.09;5058539;28;20239;-65
2023/08/05 01:17:28;;;;;;;6.25;5.65;;;;;;;27.54;56.91;99192.75;5058168;28;20358;-65
2023/08/05 01:19:54;;;;;;;7.38;5.97;;;;;;;27.50;56.94;99195.22;5056895;28;20098;-65
2023/08/05 01:22:25;;;;;;;5.90;5.40;;;;;;;27.49;57.44;99195.53;5059632;28;20055;-65
2023/08/05 01:25:28;;;;;;;6.40;5.88;;;;;;;27.49;57.67;99195.53;5058868;28;20037;-65
2023/08/05 01:27:56;;;;;;;7.13;6.13;;;;;;;27.46;57.96;99191.47;5059833;28;20132;-65
2023/08/05 01:30:26;;;;;;;6.03;5.43;;;;;;;27.39;58.27;99198.34;5058515;28;20055;-65
2023/08/05 01:32:52;;;;;;;6.80;6.13;;;;;;;27.30;58.60;99198.94;5057267;28;20713;-65
2023/08/05 01:35:21;;;;;;;7.53;6.70;;;;;;;27.23;59.21;99203.09;5056062;28;20072;-65
2023/08/05 01:37:46;;;;;;;6.35;5.68;;;;;;;27.21;59.42;99195.22;5059291;28;20041;-65
2023/08/05 01:40:12;;;;;;;7.07;6.38;;;;;;;27.08;60.35;99193.16;5058507;28;20075;-65
2023/08/05 01:42:38;;;;;;;13.10;6.60;;;;;;;27.11;60.71;99189.06;5059273;28;20338;-65
2023/08/05 01:45:04;;;;;;;8.93;6.53;;;;;;;27.18;60.80;99190.34;5059835;28;20041;-64
2023/08/05 01:47:29;;;;;;;6.72;6.03;;;;;;;27.16;61.39;99192.53;5057793;28;20043;-65
2023/08/05 01:49:54;;;;;;;6.70;6.10;;;;;;;27.16;61.52;99189.81;5058685;28;20128;-65
2023/08/05 01:52:20;;;;;;;6.95;6.35;;;;;;;27.21;61.82;99189.78;5058076;28;20029;-65
2023/08/05 01:54:45;;;;;;;8.55;6.35;;;;;;;27.24;61.84;99186.50;5057994;28;20086;-64
2023/08/05 01:57:11;;;;;;;6.60;6.00;;;;;;;27.23;61.51;99190.31;5057888;28;20273;-65
2023/08/05 01:59:36;;;;;;;6.72;6.13;;;;;;;27.20;61.65;99190.88;5059158;28;20048;-65
2023/08/05 02:02:02;;;;;;;8.93;6.32;;;;;;;27.16;61.84;99197.97;5058197;28;20037;-65
2023/08/05 02:04:27;;;;;;;7.10;5.93;;;;;;;27.18;62.23;99195.78;5057818;28;20066;-65
2023/08/05 02:06:52;;;;;;;7.25;6.53;;;;;;;27.18;62.43;99201.22;5056499;28;20047;-65
2023/08/05 02:09:18;;;;;;;6.53;5.93;;;;;;;27.19;62.62;99202.84;5057877;28;20040;-65
2023/08/05 02:11:43;;;;;;;6.68;5.95;;;;;;;27.20;62.79;99206.38;5058271;28;20160;-65
2023/08/05 02:14:09;;;;;;;7.03;6.20;;;;;;;27.23;62.62;99214.78;5061520;28;20064;-65
2023/08/05 02:16:34;;;;;;;7.97;7.18;;;;;;;27.24;63.18;99208.25;5062003;28;20067;-65
2023/08/05 02:19:01;;;;;;;10.82;6.90;;;;;;;27.23;63.22;99208.53;5062246;28;20047;-65
2023/08/05 02:21:26;;;;;;;7.28;6.63;;;;;;;27.18;63.56;99203.13;5062404;28;20223;-65
2023/08/05 02:23:52;;;;;;;8.05;7.35;;;;;;;27.16;63.93;99206.13;5061511;28;20033;-65
2023/08/05 02:26:17;;;;;;;9.15;6.80;;;;;;;27.16;64.34;99189.00;5061277;28;20043;-65
2023/08/05 02:28:44;;;;;;;7.80;7.10;;;;;;;27.19;63.93;99199.31;5059421;28;20321;-65
2023/08/05 02:31:10;;;;;;;7.20;6.50;;;;;;;27.18;63.60;99203.94;5058104;28;20091;-64
2023/08/05 02:33:35;;;;;;;7.55;6.50;;;;;;;27.18;64.04;99203.13;5060540;28;20033;-65
2023/08/05 02:36:01;;;;;;;8.23;6.47;;;;;;;27.13;63.94;99195.00;5058813;28;20041;-65
2023/08/05 02:38:27;;;;;;;7.40;6.63;;;;;;;27.17;64.41;99201.50;5057930;28;20045;-65
2023/08/05 02:40:53;;;;;;;8.15;6.80;;;;;;;27.14;65.11;99202.06;5060417;28;20095;-65
2023/08/05 02:43:18;;;;;;;8.25;7.15;;;;;;;27.08;65.99;99206.72;5060242;28;20036;-65
2023/08/05 02:45:44;;;;;;;8.82;7.13;;;;;;;27.08;66.40;99208.63;5057997;28;20067;-64
2023/08/05 02:48:09;;;;;;;8.73;6.95;;;;;;;27.08;66.72;99214.06;5059559;28;20043;-65
2023/08/05 02:50:35;;;;;;;8.32;7.07;;;;;;;27.02;67.10;99216.81;5061428;28;20036;-65
2023/08/05 02:53:00;;;;;;;7.38;6.70;;;;;;;27.00;67.67;99218.19;5061916;28;20234;-65
2023/08/05 02:55:27;;;;;;;7.93;7.07;;;;;;;26.99;67.67;99216.56;5061787;28;20079;-65
2023/08/05 02:57:52;;;;;;;8.15;7.40;;;;;;;26.94;67.75;99209.22;5061298;28;20247;-65
2023/08/05 03:00:18;;;;;;;7.72;6.95;;;;;;;26.83;68.01;99212.28;5059805;28;20045;-65
2023/08/05 03:02:43;;;;;;;8.02;7.22;;;;;;;26.80;68.12;99207.41;5060061;28;20070;-65
2023/08/05 03:05:09;;;;;;;8.73;7.88;;;;;;;26.66;68.54;99207.22;5040022;28;20277;-65
2023/08/05 03:07:34;;;;;;;7.95;7.25;;;;;;;26.57;69.20;99207.00;5058455;28;20045;-64
2023/08/05 03:10:00;;;;;;;8.73;7.40;;;;;;;26.42;70.16;99203.56;5058874;28;20084;-65
2023/08/05 03:12:25;;;;;;;7.88;7.07;;;;;;;26.36;71.21;99210.91;5059334;28;20044;-65
2023/08/05 03:14:51;;;;;;;9.68;7.93;;;;;;;26.30;71.88;99203.84;5060242;28;20033;-65
2023/08/05 03:17:17;;;;;;;8.73;7.80;;;;;;;26.28;72.06;99206.03;5059832;28;20078;-64
2023/08/05 03:19:42;;;;;;;9.32;8.35;;;;;;;26.32;72.11;99207.94;5057623;28;20269;-65
2023/08/05 03:22:08;;;;;;;9.43;7.80;;;;;;;26.35;72.67;99199.25;5058822;28;20033;-65
2023/08/05 03:24:33;;;;;;;9.10;8.07;;;;;;;26.34;73.07;99203.03;5060284;28;20050;-65
2023/08/05 03:26:58;;;;;;;10.25;7.93;;;;;;;26.31;73.54;99206.28;5060671;28;20036;-65
2023/08/05 03:29:24;;;;;;;9.85;8.23;;;;;;;26.31;74.18;99205.47;5057485;28;20039;-64
2023/08/05 03:31:49;;;;;;;9.27;7.85;;;;;;;26.37;74.24;99213.34;5058179;28;20051;-65
2023/08/05 03:34:16;;;;;;;10.88;8.05;;;;;;;26.41;74.15;99210.88;5060693;28;20076;-65
2023/08/05 03:36:42;;;;;;;9.85;7.75;;;;;;;26.42;74.08;99209.78;5060253;28;20033;-66
2023/08/05 03:39:07;;;;;;;9.95;8.70;;;;;;;26.50;74.37;99217.34;5062964;28;20338;-64
2023/08/05 03:41:34;;;;;;;8.95;7.65;;;;;;;26.57;74.13;99215.16;5061148;28;20344;-65
2023/08/05 03:44:01;;;;;;;11.55;8.48;;;;;;;26.57;73.94;99211.63;5059412;28;20062;-65
2023/08/05 03:46:27;;;;;;;12.07;8.38;;;;;;;26.40;74.85;99204.63;5060783;28;20039;-65
2023/08/05 03:48:52;;;;;;;9.75;8.75;;;;;;;26.30;75.73;99209.28;5061032;28;20375;-65
2023/08/05 03:51:18;;;;;;;10.65;8.25;;;;;;;26.33;75.64;99200.59;5059343;28;20029;-65
2023/08/05 03:53:43;;;;;;;10.52;8.85;;;;;;;26.28;76.14;99203.31;5059060;28;20036;-64
2023/08/05 03:56:08;;;;;;;9.80;8.35;;;;;;;26.27;77.21;99199.78;5059212;28;20087;-65
2023/08/05 03:58:34;;;;;;;11.23;8.95;;;;;;;26.06;79.27;99204.47;5059924;28;20043;-65
2023/08/05 04:01:01;;;;;;;11.55;9.55;;;;;;;26.07;79.53;99189.81;5059383;28;20044;-65
2023/08/05 04:03:28;;;;;;;13.10;9.35;;;;;;;25.90;81.51;99193.91;5058012;28;20390;-64
2023/08/05 04:05:54;;;;;;;10.93;9.82;;;;;;;25.93;81.52;99196.06;5059460;28;20259;-64
2023/08/05 04:08:20;;;;;;;12.05;9.65;;;;;;;25.66;84.33;99189.09;5059330;28;20048;-64
2023/08/05 04:10:46;;;;;;;10.60;9.32;;;;;;;25.70;85.30;99198.31;5059594;28;20061;-65
2023/08/05 04:13:11;;;;;;;13.38;10.50;;;;;;;25.35;88.94;99193.72;5060112;28;20045;-64
2023/08/05 04:15:38;;;;;;;11.25;10.15;;;;;;;25.40;89.45;99199.13;5061265;28;20235;-64
2023/08/05 04:18:04;;;;;;;12.75;11.23;;;;;;;25.23;91.37;99195.88;5059138;28;20379;-65
2023/08/05 04:20:30;;;;;;;12.90;10.65;;;;;;;25.17;92.62;99194.25;5056659;28;20093;-65
2023/08/05 04:22:56;;;;;;;16.08;12.25;;;;;;;25.12;94.26;99202.38;5057056;28;20258;-65
2023/08/05 04:25:22;;;;;;;13.38;10.43;;;;;;;25.14;95.15;99209.16;5057147;28;20245;-65
2023/08/05 04:27:47;;;;;;;13.60;11.52;;;;;;;25.13;96.86;99210.22;5057868;28;20047;-64
2023/08/05 04:30:13;;;;;;;14.00;10.82;;;;;;;25.20;97.45;99214.56;5056642;28;20239;-65
2023/08/05 04:32:39;;;;;;;14.43;12.57;;;;;;;25.02;99.59;99211.31;5056082;28;20059;-65
2023/08/05 04:35:05;;;;;;;13.70;11.23;;;;;;;24.87;100.00;99213.13;5058639;28;20033;-65
2023/08/05 04:37:31;;;;;;;13.10;10.98;;;;;;;24.48;100.00;99216.28;5058510;28;20342;-65
2023/08/05 04:39:56;;;;;;;15.43;12.13;;;;;;;24.65;100.00;99216.06;5058903;28;20033;-64
2023/08/05 04:42:22;;;;;;;12.98;10.93;;;;;;;24.42;100.00;99220.03;5059251;28;20305;-65
2023/08/05 04:44:48;;;;;;;13.13;10.18;;;;;;;24.62;100.00;99208.47;5056211;28;20033;-65
2023/08/05 04:47:13;;;;;;;12.50;10.88;;;;;;;24.68;100.00;99202.78;5056236;28;20033;-65
2023/08/05 04:49:43;;;;;;;11.27;9.68;;;;;;;24.66;100.00;99207.66;5057053;28;20033;-65
2023/08/05 04:52:10;;;;;;;13.95;10.98;;;;;;;24.82;100.00;99197.69;5057038;28;20269;-64
2023/08/05 04:54:39;;;;;;;13.68;10.48;;;;;;;24.93;100.00;99201.22;5059812;28;20025;-65
2023/08/05 04:57:05;;;;;;;13.38;10.52;;;;;;;25.01;100.00;99206.97;5056535;28;20045;-65
2023/08/05 04:59:32;;;;;;;13.80;10.30;;;;;;;24.83;100.00;99219.06;5056947;28;20259;-65
2023/08/05 05:01:57;;;;;;;13.70;9.77;;;;;;;25.09;100.00;99214.56;5058966;28;20227;-65
2023/08/05 05:04:22;;;;;;;12.13;9.65;;;;;;;25.19;100.00;99215.66;5059861;28;20032;-65
2023/08/05 05:06:48;;;;;;;11.00;9.35;;;;;;;25.23;100.00;99217.56;5059799;28;20045;-65
2023/08/05 05:09:13;;;;;;;11.65;9.55;;;;;;;25.20;100.00;99225.41;5060349;28;20051;-65
2023/08/05 05:11:39;;;;;;;12.23;9.25;;;;;;;25.17;100.00;99220.53;5059556;28;20384;-65
2023/08/05 05:14:06;;;;;;;11.95;9.35;;;;;;;25.43;100.00;99222.16;5060013;28;20429;-66
2023/08/05 05:16:31;;;;;;;12.43;9.57;;;;;;;25.45;100.00;99220.00;5060032;28;20045;-65
2023/08/05 05:18:57;;;;;;;16.88;10.88;;;;;;;25.70;100.00;99220.00;5059886;28;20309;-65
2023/08/05 05:21:22;;;;;;;16.52;11.52;;;;;;;25.84;100.00;99222.13;5059293;28;20049;-65
2023/08/05 05:23:48;;;;;;;16.27;11.82;;;;;;;25.88;100.00;99217.78;5058124;28;20032;-65
2023/08/05 05:26:13;;;;;;;10.95;8.80;;;;;;;25.95;100.00;99229.16;5058121;28;20048;-65
2023/08/05 05:28:39;;;;;;;10.57;8.85;;;;;;;25.89;100.00;99220.22;5058388;28;20242;-65
2023/08/05 05:31:04;;;;;;;14.75;10.05;;;;;;;25.68;100.00;99224.88;5055840;28;20043;-64
2023/08/05 05:33:29;;;;;;;10.80;8.48;;;;;;;25.77;100.00;99219.72;5055142;28;20032;-65
2023/08/05 05:35:55;;;;;;;24.48;14.50;;;;;;;25.69;100.00;99217.56;5057224;28;20040;-65
2023/08/05 05:38:20;;;;;;;19.48;11.80;;;;;;;25.56;100.00;99209.94;5058833;28;20036;-65
2023/08/05 05:40:46;;;;;;;13.75;9.15;;;;;;;25.57;100.00;99214.28;5059383;28;20028;-65
2023/08/05 05:43:11;;;;;;;10.23;9.00;;;;;;;25.75;100.00;99205.63;5058465;28;20037;-65
2023/08/05 05:45:37;;;;;;;12.25;9.07;;;;;;;25.84;100.00;99206.69;5061912;28;20033;-65
2023/08/05 05:48:03;;;;;;;11.93;10.05;;;;;;;25.79;99.72;99201.25;5064045;28;20032;-65
2023/08/05 05:50:29;;;;;;;12.32;9.25;;;;;;;25.89;99.40;99200.44;5063779;28;20051;-65
2023/08/05 05:52:54;;;;;;;11.07;9.43;;;;;;;26.28;96.94;99206.84;5062665;28;20033;-65
2023/08/05 05:55:20;;;;;;;10.45;8.88;;;;;;;26.40;94.75;99210.06;5061252;28;20047;-65
2023/08/05 05:57:46;;;;;;;11.10;8.18;;;;;;;26.36;93.47;99206.28;5061443;28;20037;-64
2023/08/05 06:00:12;;;;;;;11.02;8.95;;;;;;;26.34;93.08;99200.31;5060544;28;20064;-65
2023/08/05 06:02:37;;;;;;;10.68;8.57;;;;;;;26.39;94.28;99205.72;5061544;28;20036;-65
2023/08/05 06:05:03;;;;;;;10.18;9.13;;;;;;;26.61;92.70;99196.38;5059784;28;20049;-64
2023/08/05 06:07:28;;;;;;;10.85;9.57;;;;;;;26.73;90.99;99194.97;5061693;28;20037;-64
2023/08/05 06:09:54;;;;;;;9.05;8.15;;;;;;;26.79;90.41;99189.50;5062679;28;20047;-64
2023/08/05 06:12:22;;;;;;;11.80;9.10;;;;;;;26.65;90.95;99190.13;5061044;28;20029;-65
2023/08/05 06:14:52;;;;;;;12.13;8.75;;;;;;;27.02;89.46;99181.47;5251964;22;20064;-65
2023/08/05 06:17:18;;;;;;;9.75;8.13;;;;;;;27.31;86.48;99184.25;5036392;28;20112;-67
2023/08/05 06:19:44;;;;;;;10.13;8.10;;;;;;;27.29;87.29;99178.28;5036047;28;20289;-65
2023/08/05 06:22:09;;;;;;;10.43;9.32;;;;;;;27.07;87.91;99171.69;5035652;28;20041;-66
2023/08/05 06:24:35;;;;;;;9.98;8.50;;;;;;;27.25;87.51;99177.25;5035969;28;20047;-66
2023/08/05 06:27:01;;;;;;;10.70;8.57;;;;;;;27.14;87.63;99172.19;5036389;28;20040;-65
2023/08/05 06:29:26;;;;;;;9.15;8.25;;;;;;;27.24;85.97;99167.47;5036164;28;20045;-66
2023/08/05 06:31:52;;;;;;;7.82;7.03;;;;;;;27.49;83.49;99174.56;5035555;28;20457;-65
2023/08/05 06:34:20;;;;;;;7.40;6.70;;;;;;;27.33;84.02;99163.03;5036497;28;20250;-66
2023/08/05 06:36:45;;;;;;;8.68;7.10;;;;;;;27.37;83.82;99178.78;5036904;28;20039;-65
2023/08/05 06:39:11;;;;;;;8.05;7.07;;;;;;;27.12;85.22;99175.19;5035692;28;20056;-65
2023/08/05 06:41:36;;;;;;;7.88;7.03;;;;;;;27.62;83.68;99164.97;5034103;28;20048;-64
2023/08/05 06:44:02;;;;;;;7.80;6.95;;;;;;;27.99;78.41;99162.38;5034405;28;20025;-66
2023/08/05 06:46:27;;;;;;;7.70;6.90;;;;;;;28.21;77.14;99163.78;5034231;28;20083;-66
2023/08/05 06:48:53;;;;;;;7.68;6.32;;;;;;;28.08;77.15;99159.00;5036943;28;20048;-66
2023/08/05 06:51:18;;;;;;;9.05;6.97;;;;;;;28.36;76.38;99157.34;5036388;28;20073;-65
2023/08/05 06:53:44;;;;;;;10.57;6.50;;;;;;;28.49;74.37;99167.50;5035802;28;20346;-65
2023/08/05 06:56:10;;;;;;;8.65;6.80;;;;;;;28.18;76.03;99157.00;5036344;28;20041;-65
2023/08/05 06:58:35;;;;;;;7.82;7.07;;;;;;;28.26;75.25;99150.94;5036201;28;20111;-66
2023/08/05 07:01:01;;;;;;;7.50;6.53;;;;;;;28.19;76.02;99147.72;5035630;28;20037;-66
2023/08/05 07:03:26;;;;;;;8.57;6.53;;;;;;;28.47;75.21;99135.13;5036215;28;20037;-66
2023/08/05 07:05:56;;;;;;;7.70;6.90;;;;;;;28.72;74.38;99135.84;5035817;28;20219;-64
2023/08/05 07:08:23;;;;;;;7.15;6.43;;;;;;;28.40;75.53;99147.47;5036210;28;20120;-66
2023/08/05 07:10:56;;;;;;;8.48;6.95;;;;;;;28.46;73.12;99152.56;5036664;28;20261;-65
2023/08/05 07:13:21;;;;;;;8.10;6.70;;;;;;;28.97;71.14;99151.03;5037904;28;20053;-66
2023/08/05 07:15:47;;;;;;;9.80;6.97;;;;;;;29.12;71.76;99140.66;5050911;28;20052;-65
2023/08/05 07:18:12;;;;;;;7.00;6.30;;;;;;;29.17;69.40;99124.25;5076020;28;20032;-66
2023/08/05 07:20:41;;;;;;;6.97;6.25;;;;;;;29.49;65.33;99125.34;5075954;28;20413;-66
2023/08/05 07:23:07;;;;;;;6.82;6.15;;;;;;;29.48;67.00;99123.75;5075406;28;20075;-66
2023/08/05 07:25:32;;;;;;;6.78;5.78;;;;;;;29.26;66.24;99126.28;5075254;28;20032;-66
2023/08/05 07:27:58;;;;;;;7.43;6.68;;;;;;;29.04;65.94;99126.91;5075418;28;20029;-64
2023/08/05 07:30:23;;;;;;;6.43;5.75;;;;;;;29.23;64.98;99122.25;5075595;28;20042;-65
2023/08/05 07:32:49;;;;;;;7.45;5.95;;;;;;;29.49;63.11;99128.91;5075715;28;20032;-66
2023/08/05 07:35:14;;;;;;;6.65;6.05;;;;;;;29.51;60.40;99131.31;5075481;28;20040;-66
2023/08/05 07:37:43;;;;;;;6.47;5.82;;;;;;;29.61;61.96;99124.88;5077095;28;20287;-65
2023/08/05 07:40:12;;;;;;;6.82;6.15;;;;;;;30.06;61.99;99123.16;5076066;28;20048;-65
2023/08/05 07:42:45;;;;;;;6.68;5.93;;;;;;;30.29;60.18;99124.88;5075774;28;20260;-66
2023/08/05 07:45:17;;;;;;;;;;;;;;;30.28;59.46;99117.78;5075066;28;20040;-67
2023/08/05 07:47:44;;;;;;;6.28;5.68;;;;;;;30.34;60.03;99115.75;5074649;28;20158;-66
2023/08/05 07:50:10;;;;;;;6.68;6.00;;;;;;;30.08;58.22;99127.19;5071966;28;20109;-67
2023/08/05 07:52:37;;;;;;;8.35;6.07;;;;;;;29.78;59.07;99114.97;5074539;28;20032;-65
2023/08/05 07:55:04;;;;;;;6.65;6.05;;;;;;;30.33;57.58;99111.41;5075924;28;20032;-65
2023/08/05 07:57:30;;;;;;;5.90;5.38;;;;;;;30.54;57.86;99109.03;5074116;28;20028;-67
2023/08/05 07:59:56;;;;;;;6.15;5.55;;;;;;;30.80;56.00;99110.06;5074116;28;20047;-65
2023/08/05 08:02:22;;;;;;;6.53;5.22;;;;;;;30.61;56.16;99102.03;5074973;28;20321;-65
2023/08/05 08:04:51;;;;;;;6.30;5.70;;;;;;;30.78;55.56;99093.97;5073644;28;20032;-65
2023/08/05 08:07:17;;;;;;;6.25;5.63;;;;;;;30.68;54.58;99110.63;5073902;28;20058;-66
2023/08/05 08:09:42;;;;;;;7.32;6.30;;;;;;;30.47;54.88;99102.06;5074737;28;20361;-66
2023/08/05 08:12:09;;;;;;;7.30;5.95;;;;;;;30.52;55.38;99100.31;5074925;28;20124;-66
2023/08/05 08:14:35;;;;;;;6.43;5.38;;;;;;;30.76;54.65;99090.75;5074549;28;20201;-67
2023/08/05 08:17:00;;;;;;;7.30;5.88;;;;;;;30.87;53.41;99096.75;5073376;28;20087;-65
2023/08/05 08:19:26;;;;;;;6.22;5.63;;;;;;;31.09;53.41;99087.72;5074415;28;20637;-65
2023/08/05 08:21:51;;;;;;;6.30;5.70;;;;;;;31.03;53.20;99084.31;5075030;28;20157;-67
2023/08/05 08:24:17;;;;;;;7.07;5.43;;;;;;;30.99;53.10;99077.88;5074788;28;20024;-67
2023/08/05 08:26:42;;;;;;;5.47;4.97;;;;;;;31.00;53.20;99076.75;5075078;28;20028;-67
2023/08/05 08:29:07;;;;;;;5.97;5.47;;;;;;;30.72;51.61;99076.09;5074946;28;20040;-66
2023/08/05 08:31:33;;;;;;;5.63;5.10;;;;;;;31.07;51.27;99084.50;5074834;28;20044;-65
2023/08/05 08:34:00;;;;;;;5.97;5.47;;;;;;;30.94;50.89;99079.91;5075127;28;20020;-65
2023/08/05 08:36:26;;;;;;;5.85;5.28;;;;;;;30.98;51.48;99080.91;5074898;28;20095;-67
2023/08/05 08:38:51;;;;;;;6.22;5.57;;;;;;;31.19;51.27;99075.75;5074367;28;20044;-65
2023/08/05 08:41:17;;;;;;;6.50;5.10;;;;;;;31.25;50.32;99063.59;5075282;28;20032;-67
2023/08/05 08:43:44;;;;;;;5.85;5.35;;;;;;;31.07;49.84;99066.16;5074744;28;20031;-67
2023/08/05 08:46:13;;;;;;;6.45;5.85;;;;;;;31.35;51.18;99055.09;5074573;28;20199;-65
2023/08/05 08:48:40;;;;;;;5.57;5.07;;;;;;;31.50;49.94;99043.72;5071448;28;20286;-67
2023/08/05 08:51:07;;;;;;;5.57;5.00;;;;;;;31.46;50.32;99042.75;5074462;28;20099;-65
2023/08/05 08:53:33;;;;;;;7.22;5.25;;;;;;;31.56;50.85;99039.72;5073300;28;20032;-66
2023/08/05 08:55:58;;;;;;;5.60;5.10;;;;;;;31.39;47.91;99026.00;5073748;28;20043;-66
2023/08/05 08:58:24;;;;;;;6.15;5.40;;;;;;;31.73;48.56;99017.91;5074100;28;20040;-66
2023/08/05 09:00:50;;;;;;;5.95;5.35;;;;;;;31.74;48.92;99013.25;5073495;28;20036;-66
2023/08/05 09:03:17;;;;;;;6.15;5.60;;;;;;;31.67;46.48;99012.88;5074132;28;20044;-64
2023/08/05 09:05:53;;;;;;;6.43;5.82;;;;;;;31.54;46.99;99008.34;5075536;28;20079;-67
2023/08/05 09:08:19;;;;;;;5.80;5.20;;;;;;;31.73;46.72;99015.16;5070256;28;20265;-67
2023/08/05 09:10:45;;;;;;;6.30;5.75;;;;;;;31.51;47.24;99004.31;5077089;28;20116;-65
2023/08/05 09:13:11;;;;;;;6.60;5.90;;;;;;;31.40;46.71;98998.31;5076943;28;20317;-66
2023/08/05 09:15:38;;;;;;;6.43;5.75;;;;;;;31.45;46.10;98980.94;5075006;28;20048;-65
2023/08/05 09:18:05;;;;;;;6.50;5.25;;;;;;;31.68;46.28;98979.72;5077886;28;20314;-66
2023/08/05 09:20:31;;;;;;;8.50;6.50;;;;;;;31.64;45.64;98972.47;5078975;28;20048;-67
2023/08/05 09:23:00;;;;;;;6.35;5.75;;;;;;;31.63;44.77;98979.88;5079282;28;20035;-67
2023/08/05 09:25:28;;;;;;;6.40;5.80;;;;;;;31.77;46.38;98970.72;5079838;28;20031;-67
2023/08/05 09:27:54;;;;;;;7.05;6.35;;;;;;;31.84;45.01;98966.41;5079743;28;20040;-65
2023/08/05 09:30:21;;;;;;;7.20;6.40;;;;;;;31.75;44.79;98982.00;5080472;28;20040;-65
2023/08/05 09:32:47;;;;;;;6.47;5.82;;;;;;;31.81;45.03;98968.97;5081677;28;20333;-66
2023/08/05 09:35:14;;;;;;;6.22;5.32;;;;;;;31.76;43.03;98983.63;5081015;28;20059;-66
2023/08/05 09:37:40;;;;;;;6.05;5.40;;;;;;;31.58;42.77;98973.72;5081035;28;20040;-67
2023/08/05 09:40:19;;;;;;;5.88;5.38;;;;;;;31.78;42.38;98975.09;5081955;28;20020;-65
2023/08/05 09:42:50;;;;;;;5.63;4.90;;;;;;;31.76;43.10;98961.72;5080657;28;20031;-66
2023/08/05 09:45:17;;;;;;;6.07;5.47;;;;;;;31.78;43.60;98961.41;5080427;28;20048;-67
2023/08/05 09:47:46;;;;;;;5.00;4.50;;;;;;;31.66;44.86;98964.72;5080791;28;20032;-64
2023/08/05 09:50:15;;;;;;;5.40;4.90;;;;;;;31.73;44.08;98971.38;5080253;28;20131;-66
2023/08/05 09:52:43;;;;;;;4.93;4.45;;;;;;;31.92;44.46;98942.88;5068321;28;20024;-65
2023/08/05 09:55:17;;;;;;;5.72;5.00;;;;;;;31.79;42.83;98954.78;5081373;28;20066;-64
2023/08/05 09:57:43;;;;;;;7.88;4.60;;;;;;;31.81;40.64;98939.66;5072271;28;20371;-66
2023/08/05 10:00:11;;;;;;;5.38;4.82;;;;;;;31.80;40.29;98950.94;5076476;28;20028;-67
2023/08/05 10:02:39;;;;;;;5.53;4.32;;;;;;;31.88;40.79;98952.88;5081784;28;20029;-66
2023/08/05 10:05:05;;;;;;;5.47;4.90;;;;;;;31.86;42.13;98938.69;5081052;28;20332;-67
2023/08/05 10:07:31;;;;;;;5.75;5.15;;;;;;;31.89;43.26;98938.06;5081131;28;20044;-66
2023/08/05 10:09:58;;;;;;;5.20;4.72;;;;;;;31.93;43.26;98931.59;5079954;28;20059;-65
2023/08/05 10:12:34;;;;;;;4.13;3.72;;;;;;;32.07;38.94;98924.03;5069612;28;20108;-65
2023/08/05 10:15:01;;;;;;;4.30;3.90;;;;;;;32.08;38.04;98920.16;5064355;28;20043;-65
2023/08/05 10:17:27;;;;;;;4.72;4.32;;;;;;;32.05;38.68;98930.97;5062596;28;20045;-67
2023/08/05 10:19:53;;;;;;;4.88;4.15;;;;;;;31.98;41.70;98908.75;5064187;28;20036;-65
2023/08/05 10:22:23;;;;;;;5.30;4.80;;;;;;;32.04;42.07;98913.72;5062611;28;20036;-67
2023/08/05 10:24:57;;;;;;;6.50;4.20;;;;;;;32.10;40.19;98895.19;5063779;28;20040;-67
2023/08/05 10:27:43;;;;;;;5.72;4.00;;;;;;;32.27;37.83;98892.47;5061950;28;20071;-66
2023/08/05 10:30:19;;;;;;;4.18;3.67;;;;;;;32.25;38.22;98886.53;5071442;28;20210;-65
2023/08/05 10:32:55;;;;;;;3.67;3.38;;;;;;;32.43;38.01;98878.25;5063432;28;20300;-67
2023/08/05 10:35:24;;;;;;;4.22;3.83;;;;;;;32.56;39.29;98874.50;5061986;28;20060;-67
2023/08/05 10:37:50;;;;;;;5.47;3.88;;;;;;;32.45;38.87;98867.78;5064104;28;20035;-65
2023/08/05 10:40:45;;;;;;;5.00;4.03;;;;;;;32.47;40.22;98888.25;5061139;28;20045;-65
2023/08/05 10:43:19;;;;;;;4.88;4.30;;;;;;;32.40;40.91;98865.22;5072171;28;20044;-65
2023/08/05 10:45:46;;;;;;;5.45;4.30;;;;;;;32.67;41.08;98862.03;5063153;28;20103;-66
2023/08/05 10:48:13;;;;;;;4.68;3.67;;;;;;;32.82;36.80;98863.47;5061422;28;20051;-67
2023/08/05 10:50:41;;;;;;;5.35;4.28;;;;;;;32.92;36.66;98855.66;5065160;28;20043;-66
2023/08/05 10:53:12;;;;;;;4.80;4.20;;;;;;;32.82;36.06;98867.00;5079807;28;20033;-67
2023/08/05 10:55:54;;;;;;;4.22;3.83;;;;;;;32.76;37.44;98853.78;5080466;28;20260;-65
2023/08/05 10:58:30;;;;;;;4.07;3.67;;;;;;;32.96;37.75;98840.16;5080264;28;20040;-68
2023/08/05 11:01:00;;;;;;;4.50;3.80;;;;;;;33.09;37.04;98845.72;5079802;28;20070;-68
2023/08/05 11:03:41;;;;;;;5.00;4.18;;;;;;;33.18;37.27;98824.53;5076480;28;20048;-65
2023/08/05 11:06:08;;;;;;;4.65;3.45;;;;;;;33.24;34.17;98824.00;5074248;28;20102;-65
2023/08/05 11:08:35;;;;;;;3.97;3.17;;;;;;;33.40;34.79;98831.69;5075021;28;20043;-66
2023/08/05 11:11:03;;;;;;;5.50;3.40;;;;;;;33.33;35.22;98826.75;5074820;28;20357;-64
2023/08/05 11:13:43;;;;;;;4.47;3.60;;;;;;;33.18;36.65;98819.84;5074060;28;20071;-65
2023/08/05 11:16:17;;;;;;;3.60;3.30;;;;;;;33.22;35.38;98826.28;5073638;28;20059;-64
2023/08/05 11:18:55;;;;;;;4.03;3.50;;;;;;;33.26;36.54;98813.50;5074368;28;20056;-64
2023/08/05 11:21:20;;;;;;;4.30;3.90;;;;;;;33.28;36.81;98811.22;5076075;28;20051;-64
2023/08/05 11:23:46;;;;;;;3.80;3.40;;;;;;;33.33;35.98;98799.31;5074675;28;20032;-64
2023/08/05 11:26:12;;;;;;;3.38;3.08;;;;;;;33.46;32.14;98798.22;5074762;28;20240;-64
2023/08/05 11:28:44;;;;;;;3.53;3.08;;;;;;;33.55;30.59;98789.91;5074639;28;20043;-65